createdAt,value
2019-04-14T00:00:03.437Z,0.00
2019-04-14T00:01:02.513Z,0.00
2019-04-14T00:02:03.175Z,0.00
2019-04-14T00:03:02.486Z,0.00
2019-04-14T00:04:03.053Z,0.00
2019-04-14T00:05:02.460Z,0.00
2019-04-14T00:06:02.693Z,0.00
2019-04-14T00:07:03.601Z,0.00
2019-04-14T00:08:02.475Z,0.00
2019-04-14T00:09:03.224Z,0.00
2019-04-14T00:10:02.935Z,0.00
2019-04-14T00:11:02.379Z,0.00
2019-04-14T00:12:05.820Z,0.00
2019-04-14T00:13:02.549Z,0.00
2019-04-14T00:14:03.174Z,0.00
2019-04-14T00:15:02.550Z,0.00
2019-04-14T00:16:03.155Z,0.00
2019-04-14T00:17:02.305Z,0.00
2019-04-14T00:18:03.201Z,0.00
2019-04-14T00:19:02.350Z,0.00
2019-04-14T00:20:03.230Z,0.00
2019-04-14T00:21:02.299Z,0.00
2019-04-14T00:22:03.248Z,0.00
2019-04-14T00:23:02.257Z,0.00
2019-04-14T00:24:03.066Z,0.00
2019-04-14T00:25:02.467Z,0.00
2019-04-14T00:26:03.003Z,0.00
2019-04-14T00:27:02.171Z,0.00
2019-04-14T00:28:03.022Z,0.00
2019-04-14T00:29:02.699Z,0.00
2019-04-14T00:30:03.293Z,0.00
2019-04-14T00:31:02.353Z,0.00
2019-04-14T00:32:03.078Z,0.00
2019-04-14T00:33:02.085Z,0.00
2019-04-14T00:34:02.910Z,0.00
2019-04-14T00:35:02.070Z,0.00
2019-04-14T00:36:02.308Z,0.00
2019-04-14T00:37:03.346Z,0.00
2019-04-14T00:38:02.405Z,0.00
2019-04-14T00:39:03.122Z,0.00
2019-04-14T00:40:02.055Z,0.00
2019-04-14T00:41:02.900Z,0.00
2019-04-14T00:42:03.523Z,0.00
2019-04-14T00:43:02.777Z,0.00
2019-04-14T00:44:01.946Z,0.00
2019-04-14T00:45:02.865Z,0.00
2019-04-14T00:46:02.688Z,0.00
2019-04-14T00:47:02.853Z,0.00
2019-04-14T00:48:09.260Z,0.00
2019-04-14T00:49:02.825Z,0.00
2019-04-14T00:50:01.855Z,0.00
2019-04-14T00:51:02.758Z,0.00
2019-04-14T00:52:01.936Z,0.00
2019-04-14T00:53:01.815Z,0.00
2019-04-14T00:54:02.246Z,0.00
2019-04-14T00:55:01.798Z,0.00
2019-04-14T00:56:02.031Z,0.00
2019-04-14T00:57:03.092Z,0.00
2019-04-14T00:58:01.744Z,0.00
2019-04-14T00:59:02.805Z,0.00
2019-04-14T01:00:01.882Z,0.00
2019-04-14T01:01:02.733Z,0.00
2019-04-14T01:02:01.695Z,0.00
2019-04-14T01:03:02.544Z,0.00
2019-04-14T01:04:01.665Z,0.00
2019-04-14T01:05:02.546Z,0.00
2019-04-14T01:06:01.640Z,0.00
2019-04-14T01:07:02.211Z,0.00
2019-04-14T01:08:01.612Z,0.00
2019-04-14T01:09:02.139Z,0.00
2019-04-14T01:10:01.838Z,0.00
2019-04-14T01:11:01.572Z,0.00
2019-04-14T01:12:01.855Z,0.00
2019-04-14T01:13:02.692Z,0.00
2019-04-14T01:14:01.651Z,0.00
2019-04-14T01:15:02.962Z,0.00
2019-04-14T01:16:08.910Z,0.00
2019-04-14T01:17:02.645Z,0.00
2019-04-14T01:18:01.549Z,0.00
2019-04-14T01:19:02.556Z,0.00
2019-04-14T01:20:01.530Z,0.00
2019-04-14T01:21:02.505Z,0.00
2019-04-14T01:22:01.433Z,0.00
2019-04-14T01:23:02.046Z,0.00
2019-04-14T01:24:01.402Z,0.00
2019-04-14T01:25:02.314Z,0.00
2019-04-14T01:26:01.376Z,0.00
2019-04-14T01:27:01.697Z,0.00
2019-04-14T01:28:02.407Z,0.00
2019-04-14T01:29:01.485Z,0.00
2019-04-14T01:30:02.565Z,0.00
2019-04-14T01:31:01.304Z,0.00
2019-04-14T01:32:02.342Z,0.00
2019-04-14T01:33:01.285Z,0.00
2019-04-14T01:34:01.981Z,0.00
2019-04-14T01:35:01.269Z,0.00
2019-04-14T01:36:01.765Z,0.00
2019-04-14T01:37:01.224Z,0.00
2019-04-14T01:38:01.645Z,0.00
2019-04-14T01:39:02.453Z,0.00
2019-04-14T01:40:01.184Z,0.00
2019-04-14T01:41:02.133Z,0.00
2019-04-14T01:42:01.153Z,0.00
2019-04-14T01:43:01.705Z,0.00
2019-04-14T01:44:02.424Z,0.00
2019-04-14T01:45:01.427Z,0.00
2019-04-14T01:46:09.651Z,0.00
2019-04-14T01:47:03.030Z,0.00
2019-04-14T01:48:01.719Z,0.00
2019-04-14T01:49:01.057Z,0.00
2019-04-14T01:50:01.787Z,0.00
2019-04-14T01:51:01.037Z,0.00
2019-04-14T01:52:01.388Z,0.00
2019-04-14T01:53:01.179Z,0.00
2019-04-14T01:54:01.795Z,0.00
2019-04-14T01:55:00.993Z,0.00
2019-04-14T01:56:01.308Z,0.00
2019-04-14T01:57:00.948Z,0.00
2019-04-14T01:58:01.077Z,0.00
2019-04-14T01:59:02.134Z,0.00
2019-04-14T02:00:03.260Z,0.00
2019-04-14T02:01:01.911Z,0.00
2019-04-14T02:02:00.901Z,0.00
2019-04-14T02:03:01.940Z,0.00
2019-04-14T02:04:00.853Z,0.00
2019-04-14T02:05:01.808Z,0.00
2019-04-14T02:06:00.825Z,0.00
2019-04-14T02:07:01.630Z,0.00
2019-04-14T02:08:00.813Z,0.00
2019-04-14T02:09:01.190Z,0.00
2019-04-14T02:10:01.990Z,0.00
2019-04-14T02:11:00.974Z,0.00
2019-04-14T02:12:01.640Z,0.00
2019-04-14T02:13:00.737Z,0.00
2019-04-14T02:14:01.597Z,0.00
2019-04-14T02:15:00.702Z,0.00
2019-04-14T02:16:12.780Z,0.00
2019-04-14T02:17:03.142Z,0.00
2019-04-14T02:18:00.985Z,0.00
2019-04-14T02:19:00.656Z,0.00
2019-04-14T02:20:01.217Z,0.00
2019-04-14T02:21:00.638Z,0.00
2019-04-14T02:22:00.774Z,0.00
2019-04-14T02:23:01.671Z,0.00
2019-04-14T02:24:00.582Z,0.00
2019-04-14T02:25:01.460Z,0.00
2019-04-14T02:26:00.557Z,0.00
2019-04-14T02:27:01.282Z,0.00
2019-04-14T02:28:00.525Z,0.00
2019-04-14T02:29:01.419Z,0.00
2019-04-14T02:30:00.565Z,0.00
2019-04-14T02:31:13.921Z,0.00
2019-04-14T02:32:35.419Z,0.00
2019-04-14T02:33:32.172Z,0.00
2019-04-14T02:34:34.749Z,0.00
2019-04-14T02:35:35.161Z,0.00
2019-04-14T02:37:26.658Z,0.00
2019-04-14T02:38:36.012Z,0.00
2019-04-14T02:39:29.297Z,0.00
2019-04-14T02:40:39.329Z,0.00
2019-04-14T02:41:52.851Z,0.00
2019-04-14T02:42:42.003Z,0.00
2019-04-14T02:43:29.682Z,0.00
2019-04-14T02:44:30.262Z,0.00
2019-04-14T02:45:40.762Z,0.00
2019-04-14T02:46:35.715Z,0.00
2019-04-14T02:47:56.820Z,0.00
2019-04-14T02:48:36.138Z,0.00
2019-04-14T02:49:29.414Z,0.00
2019-04-14T02:50:24.541Z,0.00
2019-04-14T02:52:28.250Z,0.00
2019-04-14T02:53:23.995Z,0.00
2019-04-14T02:55:21.317Z,0.00
2019-04-14T02:57:26.909Z,0.00
2019-04-14T02:58:26.694Z,0.00
2019-04-14T02:59:28.924Z,0.00
2019-04-14T03:00:41.786Z,0.00
2019-04-14T03:02:30.225Z,0.00
2019-04-14T03:03:35.521Z,0.00
2019-04-14T03:04:25.984Z,0.00
2019-04-14T03:05:26.991Z,0.00
2019-04-14T03:06:25.257Z,0.00
2019-04-14T03:07:34.195Z,0.00
2019-04-14T03:08:25.638Z,0.00
2019-04-14T03:10:28.163Z,0.00
2019-04-14T03:11:24.548Z,0.00
2019-04-14T03:12:31.514Z,0.00
2019-04-14T03:13:31.814Z,0.00
2019-04-14T03:15:29.515Z,0.00
2019-04-14T03:16:29.733Z,0.00
2019-04-14T03:18:33.859Z,0.00
2019-04-14T03:19:27.540Z,0.00
2019-04-14T03:21:26.272Z,0.00
2019-04-14T03:22:32.910Z,0.00
2019-04-14T03:23:34.894Z,0.00
2019-04-14T03:24:30.786Z,0.00
2019-04-14T03:25:21.107Z,0.00
2019-04-14T03:26:24.950Z,0.00
2019-04-14T03:27:31.070Z,0.00
2019-04-14T03:28:38.758Z,0.00
2019-04-14T03:29:29.287Z,0.00
2019-04-14T03:33:48.449Z,0.00
2019-04-14T03:35:51.466Z,0.00
2019-04-14T03:36:59.724Z,0.00
2019-04-14T03:38:29.375Z,0.00
2019-04-14T03:39:31.927Z,0.00
2019-04-14T03:40:25.645Z,0.00
2019-04-14T03:41:42.836Z,0.00
2019-04-14T03:42:29.576Z,0.00
2019-04-14T03:43:28.320Z,0.00
2019-04-14T03:44:28.531Z,0.00
2019-04-14T03:45:39.403Z,0.00
2019-04-14T03:46:45.234Z,0.00
2019-04-14T03:48:48.597Z,0.00
2019-04-14T03:50:21.541Z,0.00
2019-04-14T03:51:26.369Z,0.00
2019-04-14T03:52:31.943Z,0.00
2019-04-14T03:53:32.135Z,0.00
2019-04-14T03:54:20.304Z,0.00
2019-04-14T03:55:17.431Z,0.00
2019-04-14T03:56:04.248Z,0.00
2019-04-14T03:56:59.855Z,0.00
2019-04-14T03:58:00.544Z,0.00
2019-04-14T03:58:59.835Z,0.00
2019-04-14T03:59:59.267Z,0.00
2019-04-14T04:00:59.772Z,0.00
2019-04-14T04:01:59.236Z,0.00
2019-04-14T04:02:59.790Z,0.00
2019-04-14T04:03:59.211Z,0.00
2019-04-14T04:04:59.873Z,0.00
2019-04-14T04:05:59.182Z,0.00
2019-04-14T04:06:59.640Z,0.00
2019-04-14T04:08:00.287Z,0.00
2019-04-14T04:08:59.651Z,0.00
2019-04-14T04:10:00.409Z,0.00
2019-04-14T04:10:59.779Z,0.00
2019-04-14T04:11:59.099Z,0.00
2019-04-14T04:12:59.724Z,0.00
2019-04-14T04:13:59.071Z,0.00
2019-04-14T04:14:59.660Z,0.00
2019-04-14T04:15:59.045Z,0.00
2019-04-14T04:16:59.482Z,0.00
2019-04-14T04:18:00.200Z,4.00
2019-04-14T04:19:05.528Z,4.00
2019-04-14T04:19:59.911Z,4.00
2019-04-14T04:20:58.976Z,0.00
2019-04-14T04:21:59.568Z,4.00
2019-04-14T04:22:58.949Z,4.00
2019-04-14T04:23:59.671Z,8.00
2019-04-14T04:24:58.923Z,8.00
2019-04-14T04:25:59.480Z,12.00
2019-04-14T04:26:58.896Z,12.00
2019-04-14T04:27:59.095Z,16.00
2019-04-14T04:28:58.874Z,12.00
2019-04-14T04:29:59.211Z,20.00
2019-04-14T04:30:58.838Z,20.00
2019-04-14T04:31:58.990Z,24.00
2019-04-14T04:32:59.996Z,28.00
2019-04-14T04:33:58.798Z,36.00
2019-04-14T04:34:59.847Z,40.00
2019-04-14T04:35:58.769Z,44.00
2019-04-14T04:36:59.585Z,44.00
2019-04-14T04:37:58.741Z,56.00
2019-04-14T04:38:59.622Z,68.00
2019-04-14T04:39:58.716Z,84.00
2019-04-14T04:40:59.409Z,84.00
2019-04-14T04:41:58.698Z,88.00
2019-04-14T04:42:59.087Z,100.00
2019-04-14T04:43:58.657Z,108.00
2019-04-14T04:44:59.554Z,116.00
2019-04-14T04:45:58.641Z,128.00
2019-04-14T04:46:59.132Z,140.00
2019-04-14T04:47:58.600Z,156.00
2019-04-14T04:49:08.287Z,184.00
2019-04-14T04:49:58.572Z,212.00
2019-04-14T04:50:58.653Z,236.00
2019-04-14T04:51:59.621Z,260.00
2019-04-14T04:52:58.529Z,284.00
2019-04-14T04:53:59.464Z,308.00
2019-04-14T04:54:58.500Z,320.00
2019-04-14T04:55:59.311Z,332.00
2019-04-14T04:56:58.472Z,340.00
2019-04-14T04:57:59.104Z,356.00
2019-04-14T04:58:58.930Z,344.00
2019-04-14T04:59:58.428Z,368.00
2019-04-14T05:00:59.590Z,384.00
2019-04-14T05:01:58.399Z,396.00
2019-04-14T05:02:59.323Z,408.00
2019-04-14T05:03:58.371Z,432.00
2019-04-14T05:04:59.129Z,440.00
2019-04-14T05:05:58.343Z,448.00
2019-04-14T05:06:59.233Z,484.00
2019-04-14T05:07:58.313Z,492.00
2019-04-14T05:08:59.137Z,508.00
2019-04-14T05:09:58.283Z,488.00
2019-04-14T05:10:58.921Z,448.00
2019-04-14T05:11:58.256Z,464.00
2019-04-14T05:12:58.604Z,464.00
2019-04-14T05:13:58.226Z,444.00
2019-04-14T05:14:58.855Z,404.00
2019-04-14T05:15:58.199Z,384.00
2019-04-14T05:16:59.294Z,400.00
2019-04-14T05:17:58.170Z,416.00
2019-04-14T05:19:11.421Z,472.00
2019-04-14T05:19:58.453Z,604.00
2019-04-14T05:20:58.131Z,812.00
2019-04-14T05:21:58.151Z,952.00
2019-04-14T05:22:59.302Z,996.00
2019-04-14T05:23:58.171Z,980.00
2019-04-14T05:24:59.208Z,1088.00
2019-04-14T05:25:58.193Z,1320.00
2019-04-14T05:26:59.167Z,1360.00
2019-04-14T05:27:58.077Z,1348.00
2019-04-14T05:28:59.045Z,1320.00
2019-04-14T05:29:58.082Z,1416.00
2019-04-14T05:30:58.948Z,1468.00
2019-04-14T05:31:57.975Z,1228.00
2019-04-14T05:32:58.736Z,1100.00
2019-04-14T05:33:57.946Z,1084.00
2019-04-14T05:34:58.699Z,1056.00
2019-04-14T05:35:57.920Z,1120.00
2019-04-14T05:36:58.476Z,1356.00
2019-04-14T05:37:57.892Z,1592.00
2019-04-14T05:38:58.121Z,1856.00
2019-04-14T05:39:57.868Z,1944.00
2019-04-14T05:40:58.361Z,1888.00
2019-04-14T05:42:07.535Z,1780.00
2019-04-14T05:42:58.030Z,1652.00
2019-04-14T05:44:01.204Z,1448.00
2019-04-14T05:44:57.917Z,1344.00
2019-04-14T05:45:59.040Z,1272.00
2019-04-14T05:46:57.917Z,1344.00
2019-04-14T05:47:58.821Z,1380.00
2019-04-14T05:48:57.900Z,1380.00
2019-04-14T05:49:59.160Z,1536.00
2019-04-14T05:50:57.850Z,1468.00
2019-04-14T05:51:57.699Z,1556.00
2019-04-14T05:52:57.967Z,1576.00
2019-04-14T05:53:57.671Z,1608.00
2019-04-14T05:54:57.945Z,1772.00
2019-04-14T05:55:57.645Z,1908.00
2019-04-14T05:56:57.960Z,2212.00
2019-04-14T05:57:57.617Z,2480.00
2019-04-14T05:58:57.985Z,2332.00
2019-04-14T05:59:57.593Z,2124.00
2019-04-14T06:00:57.990Z,2144.00
2019-04-14T06:01:57.563Z,2016.00
2019-04-14T06:02:57.549Z,2040.00
2019-04-14T06:03:58.170Z,1696.00
2019-04-14T06:04:57.523Z,1576.00
2019-04-14T06:05:57.509Z,1536.00
2019-04-14T06:06:57.495Z,1480.00
2019-04-14T06:07:57.482Z,1532.00
2019-04-14T06:08:57.468Z,1468.00
2019-04-14T06:09:57.455Z,1604.00
2019-04-14T06:10:57.442Z,1876.00
2019-04-14T06:11:57.428Z,2120.00
2019-04-14T06:12:57.414Z,2104.00
2019-04-14T06:13:57.400Z,1808.00
2019-04-14T06:14:57.390Z,1964.00
2019-04-14T06:15:57.374Z,2132.00
2019-04-14T06:16:57.361Z,2104.00
2019-04-14T06:17:57.347Z,2020.00
2019-04-14T06:18:57.335Z,1772.00
2019-04-14T06:19:57.330Z,2004.00
2019-04-14T06:20:57.307Z,2140.00
2019-04-14T06:21:57.293Z,2684.00
2019-04-14T06:22:57.280Z,2604.00
2019-04-14T06:23:57.266Z,2340.00
2019-04-14T06:24:57.254Z,2460.00
2019-04-14T06:25:57.246Z,2448.00
2019-04-14T06:26:57.230Z,2348.00
2019-04-14T06:27:57.213Z,2216.00
2019-04-14T06:28:57.200Z,2228.00
2019-04-14T06:29:57.187Z,2228.00
2019-04-14T06:30:57.177Z,2372.00
2019-04-14T06:31:57.161Z,2204.00
2019-04-14T06:32:57.147Z,2188.00
2019-04-14T06:33:57.139Z,2408.00
2019-04-14T06:34:57.121Z,2440.00
2019-04-14T06:35:57.107Z,2228.00
2019-04-14T06:36:57.096Z,2064.00
2019-04-14T06:37:57.081Z,2160.00
2019-04-14T06:38:57.071Z,2636.00
2019-04-14T06:39:57.055Z,3252.00
2019-04-14T06:40:57.044Z,3064.00
2019-04-14T06:41:57.028Z,2764.00
2019-04-14T06:42:57.021Z,3216.00
2019-04-14T06:43:57.003Z,3356.00
2019-04-14T06:44:56.988Z,2932.00
2019-04-14T06:45:56.974Z,2536.00
2019-04-14T06:46:56.961Z,2496.00
2019-04-14T06:47:56.948Z,2596.00
2019-04-14T06:48:56.938Z,2688.00
2019-04-14T06:49:56.921Z,2772.00
2019-04-14T06:50:56.912Z,2072.00
2019-04-14T06:51:56.896Z,2212.00
2019-04-14T06:52:56.881Z,2332.00
2019-04-14T06:53:56.867Z,2416.00
2019-04-14T06:54:56.855Z,2392.00
2019-04-14T06:55:56.841Z,2924.00
2019-04-14T06:56:56.827Z,2868.00
2019-04-14T06:57:56.815Z,3072.00
2019-04-14T06:58:56.801Z,3508.00
2019-04-14T06:59:56.789Z,3284.00
2019-04-14T07:00:56.782Z,3572.00
2019-04-14T07:01:59.128Z,3272.00
2019-04-14T07:02:56.747Z,2684.00
2019-04-14T07:03:56.733Z,2376.00
2019-04-14T07:04:56.720Z,2060.00
2019-04-14T07:05:56.706Z,2292.00
2019-04-14T07:06:56.692Z,2460.00
2019-04-14T07:07:57.567Z,2092.00
2019-04-14T07:08:56.668Z,2036.00
2019-04-14T07:09:56.653Z,2008.00
2019-04-14T07:10:56.638Z,2816.00
2019-04-14T07:11:56.640Z,4020.00
2019-04-14T07:12:56.611Z,3980.00
2019-04-14T07:13:56.596Z,3700.00
2019-04-14T07:14:56.583Z,3384.00
2019-04-14T07:15:56.600Z,3624.00
2019-04-14T07:16:56.558Z,4252.00
2019-04-14T07:17:56.544Z,5596.00
2019-04-14T07:18:56.582Z,5936.00
2019-04-14T07:20:02.348Z,5980.00
2019-04-14T07:20:56.507Z,5492.00
2019-04-14T07:21:56.489Z,5532.00
2019-04-14T07:22:56.475Z,4972.00
2019-04-14T07:23:56.463Z,5276.00
2019-04-14T07:24:56.449Z,5480.00
2019-04-14T07:25:56.436Z,6112.00
2019-04-14T07:26:56.428Z,5544.00
2019-04-14T07:27:56.409Z,5148.00
2019-04-14T07:28:57.121Z,4388.00
2019-04-14T07:29:56.383Z,3928.00
2019-04-14T07:30:56.371Z,4416.00
2019-04-14T07:31:56.358Z,4560.00
2019-04-14T07:32:56.346Z,4572.00
2019-04-14T07:33:56.332Z,5580.00
2019-04-14T07:34:56.325Z,6412.00
2019-04-14T07:35:56.306Z,6888.00
2019-04-14T07:36:56.296Z,7436.00
2019-04-14T07:37:56.285Z,8364.00
2019-04-14T07:38:56.268Z,9880.00
2019-04-14T07:39:56.256Z,11380.00
2019-04-14T07:40:56.242Z,11260.00
2019-04-14T07:41:56.229Z,12524.00
2019-04-14T07:42:56.218Z,12960.00
2019-04-14T07:43:56.210Z,12036.00
2019-04-14T07:44:56.195Z,10896.00
2019-04-14T07:45:56.181Z,9900.00
2019-04-14T07:46:56.169Z,10112.00
2019-04-14T07:47:56.158Z,10476.00
2019-04-14T07:48:56.146Z,9876.00
2019-04-14T07:49:56.134Z,8172.00
2019-04-14T07:50:56.122Z,8424.00
2019-04-14T07:51:56.112Z,6812.00
2019-04-14T07:52:56.100Z,7440.00
2019-04-14T07:53:56.091Z,6856.00
2019-04-14T07:54:56.076Z,5044.00
2019-04-14T07:55:56.065Z,6072.00
2019-04-14T07:56:56.054Z,5040.00
2019-04-14T07:57:56.043Z,5468.00
2019-04-14T07:58:56.029Z,4452.00
2019-04-14T07:59:56.019Z,5088.00
2019-04-14T08:00:56.006Z,5520.00
2019-04-14T08:01:55.995Z,5220.00
2019-04-14T08:02:55.986Z,4900.00
2019-04-14T08:03:55.973Z,7048.00
2019-04-14T08:04:55.959Z,5640.00
2019-04-14T08:05:55.945Z,5788.00
2019-04-14T08:06:55.942Z,7756.00
2019-04-14T08:07:55.922Z,7864.00
2019-04-14T08:08:55.911Z,7472.00
2019-04-14T08:09:55.945Z,6512.00
2019-04-14T08:10:55.884Z,5652.00
2019-04-14T08:11:55.872Z,5728.00
2019-04-14T08:12:55.866Z,5828.00
2019-04-14T08:13:55.847Z,6032.00
2019-04-14T08:14:55.836Z,6960.00
2019-04-14T08:15:55.823Z,8024.00
2019-04-14T08:16:55.810Z,8956.00
2019-04-14T08:17:55.797Z,9992.00
2019-04-14T08:18:55.843Z,9184.00
2019-04-14T08:19:55.774Z,7268.00
2019-04-14T08:20:55.762Z,6188.00
2019-04-14T08:21:55.750Z,6092.00
2019-04-14T08:22:57.757Z,5544.00
2019-04-14T08:23:55.725Z,6780.00
2019-04-14T08:24:55.715Z,7912.00
2019-04-14T08:25:55.700Z,8452.00
2019-04-14T08:26:55.689Z,8156.00
2019-04-14T08:27:55.677Z,7460.00
2019-04-14T08:28:55.671Z,6032.00
2019-04-14T08:29:55.653Z,6464.00
2019-04-14T08:30:55.643Z,8764.00
2019-04-14T08:31:55.630Z,9596.00
2019-04-14T08:32:55.620Z,9596.00
2019-04-14T08:33:55.605Z,10332.00
2019-04-14T08:34:55.595Z,9804.00
2019-04-14T08:35:55.582Z,8020.00
2019-04-14T08:36:55.571Z,7316.00
2019-04-14T08:37:55.558Z,5932.00
2019-04-14T08:38:55.550Z,6892.00
2019-04-14T08:39:55.536Z,9708.00
2019-04-14T08:40:55.525Z,10624.00
2019-04-14T08:41:55.513Z,10100.00
2019-04-14T08:42:55.501Z,10028.00
2019-04-14T08:43:55.489Z,10408.00
2019-04-14T08:44:55.481Z,11544.00
2019-04-14T08:45:55.467Z,14148.00
2019-04-14T08:46:55.455Z,17280.00
2019-04-14T08:47:55.445Z,19584.00
2019-04-14T08:48:55.433Z,22528.00
2019-04-14T08:49:55.422Z,25088.00
2019-04-14T08:50:55.412Z,26016.00
2019-04-14T08:51:55.403Z,26624.00
2019-04-14T08:52:55.392Z,24992.00
2019-04-14T08:53:55.382Z,24736.00
2019-04-14T08:54:55.373Z,25440.00
2019-04-14T08:55:55.364Z,22976.00
2019-04-14T08:56:55.359Z,22816.00
2019-04-14T08:57:55.346Z,24544.00
2019-04-14T08:58:55.339Z,26048.00
2019-04-14T08:59:55.331Z,28576.00
2019-04-14T09:00:55.324Z,27840.00
2019-04-14T09:01:55.315Z,23328.00
2019-04-14T09:02:55.308Z,20672.00
2019-04-14T09:03:55.301Z,18816.00
2019-04-14T09:04:55.296Z,20512.00
2019-04-14T09:05:55.286Z,26944.00
2019-04-14T09:06:55.279Z,26432.00
2019-04-14T09:07:55.272Z,25760.00
2019-04-14T09:08:55.268Z,25728.00
2019-04-14T09:09:55.263Z,25440.00
2019-04-14T09:10:55.253Z,25792.00
2019-04-14T09:11:55.309Z,25504.00
2019-04-14T09:12:55.243Z,25824.00
2019-04-14T09:13:55.237Z,26816.00
2019-04-14T09:14:57.341Z,26400.00
2019-04-14T09:15:55.229Z,26592.00
2019-04-14T09:16:55.225Z,27936.00
2019-04-14T09:17:55.220Z,27232.00
2019-04-14T09:19:06.909Z,27840.00
2019-04-14T09:19:55.214Z,25760.00
2019-04-14T09:20:55.234Z,25056.00
2019-04-14T09:21:55.205Z,27904.00
2019-04-14T09:22:55.202Z,23584.00
2019-04-14T09:23:56.912Z,26496.00
2019-04-14T09:24:55.211Z,27872.00
2019-04-14T09:25:55.190Z,26592.00
2019-04-14T09:26:55.191Z,24512.00
2019-04-14T09:27:55.184Z,23104.00
2019-04-14T09:28:55.180Z,22656.00
2019-04-14T09:29:55.175Z,23360.00
2019-04-14T09:30:55.171Z,28160.00
2019-04-14T09:31:55.167Z,27744.00
2019-04-14T09:32:55.163Z,28768.00
2019-04-14T09:33:55.159Z,28000.00
2019-04-14T09:34:55.161Z,29184.00
2019-04-14T09:35:55.152Z,29920.00
2019-04-14T09:36:55.164Z,29920.00
2019-04-14T09:37:55.146Z,27648.00
2019-04-14T09:38:55.145Z,30752.00
2019-04-14T09:39:55.142Z,29888.00
2019-04-14T09:40:55.140Z,28544.00
2019-04-14T09:41:55.137Z,23968.00
2019-04-14T09:42:57.659Z,25824.00
2019-04-14T09:43:55.135Z,28992.00
2019-04-14T09:44:55.136Z,28640.00
2019-04-14T09:45:55.131Z,25216.00
2019-04-14T09:46:55.132Z,26528.00
2019-04-14T09:47:55.129Z,24928.00
2019-04-14T09:48:55.127Z,22336.00
2019-04-14T09:49:55.125Z,24384.00
2019-04-14T09:51:04.555Z,23008.00
2019-04-14T09:51:55.122Z,27616.00
2019-04-14T09:52:55.119Z,22144.00
2019-04-14T09:53:55.119Z,23680.00
2019-04-14T09:54:55.118Z,23744.00
2019-04-14T09:55:55.112Z,21120.00
2019-04-14T09:56:55.109Z,17952.00
2019-04-14T09:57:55.105Z,13956.00
2019-04-14T09:58:55.103Z,13444.00
2019-04-14T09:59:55.104Z,14472.00
2019-04-14T10:00:55.097Z,16160.00
2019-04-14T10:01:55.092Z,18464.00
2019-04-14T10:02:55.089Z,17536.00
2019-04-14T10:03:55.084Z,15004.00
2019-04-14T10:04:55.080Z,17600.00
2019-04-14T10:05:55.075Z,18176.00
2019-04-14T10:06:55.073Z,23744.00
2019-04-14T10:07:55.066Z,17504.00
2019-04-14T10:08:55.063Z,16960.00
2019-04-14T10:09:55.054Z,16832.00
2019-04-14T10:10:55.049Z,20096.00
2019-04-14T10:11:56.497Z,19392.00
2019-04-14T10:12:55.038Z,25216.00
2019-04-14T10:13:55.033Z,24480.00
2019-04-14T10:14:55.027Z,22080.00
2019-04-14T10:15:55.022Z,29888.00
2019-04-14T10:16:55.017Z,39264.00
2019-04-14T10:17:55.014Z,37568.00
2019-04-14T10:18:55.007Z,24064.00
2019-04-14T10:19:55.002Z,27552.00
2019-04-14T10:20:54.998Z,53504.00
2019-04-14T10:21:54.993Z,55104.00
2019-04-14T10:22:54.990Z,40224.00
2019-04-14T10:23:54.985Z,13636.00
2019-04-14T10:24:54.982Z,16864.00
2019-04-14T10:25:54.978Z,37696.00
2019-04-14T10:26:54.975Z,21152.00
2019-04-14T10:27:54.971Z,16832.00
2019-04-14T10:28:54.968Z,13236.00
2019-04-14T10:29:54.963Z,10020.00
2019-04-14T10:30:54.960Z,8636.00
2019-04-14T10:31:54.955Z,9292.00
2019-04-14T10:32:54.953Z,11444.00
2019-04-14T10:33:54.945Z,14796.00
2019-04-14T10:34:54.941Z,17088.00
2019-04-14T10:35:54.938Z,24416.00
2019-04-14T10:36:54.930Z,21568.00
2019-04-14T10:37:54.923Z,44288.00
2019-04-14T10:38:54.922Z,18848.00
2019-04-14T10:39:54.913Z,35328.00
2019-04-14T10:40:54.958Z,22080.00
2019-04-14T10:41:54.922Z,21152.00
2019-04-14T10:42:54.897Z,24544.00
2019-04-14T10:43:54.892Z,54144.00
2019-04-14T10:44:54.888Z,55168.00
2019-04-14T10:45:54.884Z,46880.00
2019-04-14T10:46:54.890Z,57184.00
2019-04-14T10:47:54.875Z,51456.00
2019-04-14T10:48:54.878Z,18368.00
2019-04-14T10:49:54.869Z,15512.00
2019-04-14T10:50:54.867Z,17536.00
2019-04-14T10:51:54.863Z,38144.00
2019-04-14T10:52:54.861Z,52352.00
2019-04-14T10:53:54.858Z,27168.00
2019-04-14T10:54:54.855Z,48416.00
2019-04-14T10:55:54.851Z,43616.00
2019-04-14T10:56:54.850Z,28000.00
2019-04-14T10:57:54.848Z,23808.00
2019-04-14T10:58:54.842Z,35360.00
2019-04-14T10:59:54.840Z,19968.00
2019-04-14T11:00:54.843Z,20768.00
2019-04-14T11:01:54.833Z,29120.00
2019-04-14T11:02:54.831Z,57312.00
2019-04-14T11:03:54.829Z,42912.00
2019-04-14T11:04:54.825Z,48672.00
2019-04-14T11:05:54.821Z,23328.00
2019-04-14T11:06:54.819Z,50720.00
2019-04-14T11:07:54.818Z,54432.00
2019-04-14T11:08:54.814Z,58464.00
2019-04-14T11:09:54.816Z,57056.00
2019-04-14T11:10:54.811Z,53280.00
2019-04-14T11:11:54.815Z,58080.00
2019-04-14T11:12:54.812Z,60000.00
2019-04-14T11:13:54.807Z,31072.00
2019-04-14T11:14:54.807Z,26720.00
2019-04-14T11:15:54.807Z,51456.00
2019-04-14T11:16:54.813Z,29632.00
2019-04-14T11:17:54.808Z,20640.00
2019-04-14T11:18:54.808Z,20576.00
2019-04-14T11:19:54.807Z,31840.00
2019-04-14T11:20:54.806Z,36832.00
2019-04-14T11:21:54.804Z,21088.00
2019-04-14T11:23:03.101Z,30816.00
2019-04-14T11:23:54.808Z,24448.00
2019-04-14T11:24:54.801Z,28928.00
2019-04-14T11:25:54.800Z,20448.00
2019-04-14T11:26:54.795Z,18592.00
2019-04-14T11:27:54.793Z,12660.00
2019-04-14T11:28:54.793Z,11340.00
2019-04-14T11:29:54.787Z,12620.00
2019-04-14T11:30:54.785Z,14352.00
2019-04-14T11:31:54.781Z,57408.00
2019-04-14T11:32:54.776Z,57728.00
2019-04-14T11:33:54.774Z,51072.00
2019-04-14T11:34:54.770Z,56480.00
2019-04-14T11:35:54.847Z,62752.00
2019-04-14T11:36:54.763Z,58720.00
2019-04-14T11:37:54.760Z,54688.00
2019-04-14T11:38:54.758Z,57280.00
2019-04-14T11:39:54.757Z,52352.00
2019-04-14T11:40:54.756Z,59680.00
2019-04-14T11:41:54.754Z,57536.00
2019-04-14T11:42:54.756Z,52320.00
2019-04-14T11:43:54.765Z,54304.00
2019-04-14T11:44:54.760Z,55552.00
2019-04-14T11:45:54.753Z,49440.00
2019-04-14T11:46:54.756Z,19072.00
2019-04-14T11:47:54.772Z,15284.00
2019-04-14T11:48:54.756Z,19328.00
2019-04-14T11:49:54.754Z,12356.00
2019-04-14T11:50:54.760Z,11532.00
2019-04-14T11:51:55.838Z,14136.00
2019-04-14T11:52:54.754Z,15476.00
2019-04-14T11:53:54.751Z,18688.00
2019-04-14T11:54:54.752Z,35456.00
2019-04-14T11:55:54.744Z,36512.00
2019-04-14T11:56:54.745Z,16608.00
2019-04-14T11:57:54.743Z,27616.00
2019-04-14T11:58:54.743Z,19456.00
2019-04-14T11:59:54.736Z,40288.00
2019-04-14T12:00:54.744Z,45376.00
2019-04-14T12:01:54.730Z,48576.00
2019-04-14T12:02:54.744Z,51840.00
2019-04-14T12:03:54.728Z,51360.00
2019-04-14T12:04:54.726Z,45184.00
2019-04-14T12:05:54.728Z,19040.00
2019-04-14T12:06:54.726Z,13244.00
2019-04-14T12:07:54.726Z,10444.00
2019-04-14T12:08:54.727Z,9964.00
2019-04-14T12:09:54.726Z,9964.00
2019-04-14T12:10:54.783Z,10868.00
2019-04-14T12:11:54.734Z,12508.00
2019-04-14T12:12:54.720Z,12856.00
2019-04-14T12:13:54.717Z,14796.00
2019-04-14T12:14:54.716Z,18848.00
2019-04-14T12:15:54.711Z,24256.00
2019-04-14T12:16:54.714Z,23136.00
2019-04-14T12:17:54.705Z,23232.00
2019-04-14T12:18:54.704Z,24224.00
2019-04-14T12:19:54.701Z,24288.00
2019-04-14T12:20:54.697Z,22912.00
2019-04-14T12:22:07.407Z,19776.00
2019-04-14T12:22:54.751Z,13656.00
2019-04-14T12:23:54.692Z,13244.00
2019-04-14T12:24:54.691Z,13380.00
2019-04-14T12:26:04.710Z,14160.00
2019-04-14T12:26:54.687Z,15100.00
2019-04-14T12:27:55.735Z,13752.00
2019-04-14T12:28:55.806Z,14956.00
2019-04-14T12:29:54.677Z,17856.00
2019-04-14T12:30:55.467Z,24000.00
2019-04-14T12:31:55.258Z,23744.00
2019-04-14T12:32:54.668Z,23616.00
2019-04-14T12:33:54.663Z,23488.00
2019-04-14T12:34:54.660Z,23232.00
2019-04-14T12:35:54.658Z,21856.00
2019-04-14T12:36:54.657Z,17120.00
2019-04-14T12:37:54.654Z,15968.00
2019-04-14T12:38:54.652Z,16024.00